64319 station(s) have been heard in the last 24 hours.

<< 693 694 695 696 697 698 699 >>
  Name/Id Latest heard Comment/Other Map
Symbol YD2SMG-15 1788332459 correction msg: LUMPIA sent to:YD2SMG-10 Tnx 73 Map
Symbol P-VE4CA 1788332459 DAPNET POCSAG Transmitter(26AE)(ONLINE) Map
Symbol KG4CWC-D 1788332459 70cm MMDVM Voice (DMR) 438.44500MHz +0.0000MHz, APRS for DMRGateway Map
Symbol WR4VR-9 1788332459 `VRRC GOLD RUSH FESTIVAL STATION 147.180+127.3_2 Map
Symbol WZ3HMT-Y 1788332459 70cm MMDVM Voice (C4FM) 445.97500MHz +0.0000MHz, APRS for YSFGateway Map
Symbol KG5EUX-11 1788332459 147.480MHz Winlink VARA FM Wide Gateway Map
Symbol P-PD9C 1788332459 PHG0-200DAPNET POCSAG Transmitter(048C)(ONLINE) Map
Symbol CX4AE B 1788332459 70cm Voice (D-Star) 434.50000MHz +5.0000MHz, APRS for ircDDBGateway Map
Symbol ED1ZAR-3 1788332459 Map
Symbol AK4ZX 1788332459 OpenWebRX APRS gateway HEIGHT=33 GAIN=6 Map
Symbol VE3SJB-5 1788332459 Stephan's iGate / Digipeater - Thunder Bay, Ontario - Testing Map
Symbol KJ4PYC-C 1788332459 2m Voice 145.08 + 1.40 MHz Map
Symbol K6SON-11 1788332459 SCRA11 LINBPQ Winlink/BBS node - AREDN reachable Map
Symbol N0NQD-1 1788332459 WX3in1Plus2.0 U=12.3V,T=18.6C/65.4F, Digipeater I-Gate Map
Symbol EI6IGB-D 1788332458 70cm MMDVM Voice (DMR) 433.57500MHz +0.0000MHz, APRS for DMRGateway Map
Symbol TAI-6975 1788332458 146.975MHz -060 Tairua River 6975 2M VHF Repeater (IRLP 6223) Linked to MER-7075 https://www.nzart.org.nz/info/repeater-maps Map
Symbol P-DO8DH 1788332458 DAPNET POCSAG Transmitter(3489BC)(ONLINE) Map
Symbol XE3WM-10 1788332458 LoRa APRS IGATE MERIDA MX Map
Symbol 145.700CT 1788332458 145.700MHz t088 -060 Constantiaberg Map
Symbol LY7LS 1788332458 Potato base. Map
Symbol DB1JRI B 1788332458 70cm Voice (D-Star) 430.10000MHz +0.0000MHz Map
Symbol EL-DG8NFO 1788332458 432.825MHz T088 R05k RF-Guru Hotspot Echolink-ID: 455279 Map
Symbol P-DL7KM 1788332458 DAPNET POCSAG Transmitter(159D)(ONLINE) Map
Symbol DF1BO-15 1788332458 Testnode#DF1BO-15/B=065/N2 Map
Symbol JH1WUX-1 1788332458 W1,STn-N,Sakuraku 144.66MHz 1200bps Map
Symbol IZ0OWE-R 1788332458 70cm MMDVM Voice (NXDN) 430.90000MHz +7.6000MHz, IZ0OWE_Pi-Star_RPT Map
Symbol N6NYC-Y 1788332458 70cm MMDVM Voice (C4FM) 445.67000MHz +0.0000MHz, APRS for YSFGateway Map
Symbol DD3AE-33 1788332458 B=100 Map
Symbol ER-PI2BRD 1788332458 145.650MHz T071 R42k Map
Symbol SE3LDP-B 1788332458 70cm Voice (D-Star) 434.90000MHz +0.0000MHz Map
Symbol MM7LZD-D 1788332458 70cm MMDVM Voice (DMR) 438.80000MHz +0.0000MHz, APRS for DMRGateway Map
Symbol TA7OLA-10 1788332458 RX/TX LoRa iGate on 433.775MHz Temp: 30.75C, Humid:56.74% Map
Symbol I5FPY-7 1788332458 I5fpy-7 Rufina#I5fpy-7 Marino/B=100/N1 Map
Symbol UR5FCD-R 1788332458 70cm MMDVM Voice (NXDN) 439.20000MHz -7.6000MHz, UR5FCD_Pi-Star_RPT Map
Symbol P-DA3W 1788332458 DAPNET POCSAG Transmitter(159D)(ONLINE) Map
Symbol P-EA4HQF 1788332457 DAPNET POCSAG Transmitter(0123456789ABCDEF)(ONLINE) Map
Symbol EA1ACR 1788332457 Yaesu DMO with EA7EE Sofware Map
Symbol SQ5AKC C 1788332457 2m Voice (D-Star) 145.00000MHz +0.0000MHz Map
Symbol PD5RM-7 1788332457 `Robin QRV vanaf QRL_3 Map
Symbol WXMY-7 1788332457 Map
Symbol P-9V1LH 1788332457 PHG0-200DAPNET POCSAG Transmitter(0167CD)(ONLINE) Map
Symbol KD9DOE-10 1788332457 RX-Only iGate - Near West Side of Madison, WI Map
Symbol F5ZQD-3 1788332457 Map
Symbol N4BZJ-F 1788332457 70cm Voice (D-Star) 440.00000MHz +0.0000MHz Map
Symbol F1FRW 1788332457 Pierre - Massat - 09 - 620m {UIV32N} Map
Symbol VA7OGO-1 1788332457 12.7V 17C OCARC Digi www.ocarc.ca - Revelstoke West Map
Symbol F5ZXS-B 1788332457 70cm Voice (D-Star) 439.87500MHz -9.4000MHz Map
Symbol GB7JI B 1788332457 440 Voice 438.450 -7.6 MHz Map
Symbol 5B4ANU-12 1788332457 AQI Temp: 23.45C, News: No link found Map
Symbol P-DC1SHM 1788332457 PHG0-120DAPNET POCSAG Transmitter(048C)(ONLINE) Map